sensor_id;sensor_type;location;lat;lon;timestamp;temperature;humidity
49829;DHT22;35723;51.194;5.112;2023-04-03T00:02:14;5.20;99.90
49829;DHT22;35723;51.194;5.112;2023-04-03T00:04:40;5.10;99.90
49829;DHT22;35723;51.194;5.112;2023-04-03T00:07:06;5.20;99.90
49829;DHT22;35723;51.194;5.112;2023-04-03T00:09:32;5.00;99.90
49829;DHT22;35723;51.194;5.112;2023-04-03T00:11:57;4.90;99.90
49829;DHT22;35723;51.194;5.112;2023-04-03T00:14:23;4.90;99.90
49829;DHT22;35723;51.194;5.112;2023-04-03T00:16:49;5.00;99.90
49829;DHT22;35723;51.194;5.112;2023-04-03T00:19:15;5.00;99.90
49829;DHT22;35723;51.194;5.112;2023-04-03T00:21:40;5.00;99.90
49829;DHT22;35723;51.194;5.112;2023-04-03T00:24:06;5.00;99.90
49829;DHT22;35723;51.194;5.112;2023-04-03T00:26:32;5.00;99.90
49829;DHT22;35723;51.194;5.112;2023-04-03T00:28:58;4.90;99.90
49829;DHT22;35723;51.194;5.112;2023-04-03T00:31:23;4.90;99.90
49829;DHT22;35723;51.194;5.112;2023-04-03T00:33:49;4.90;99.90
49829;DHT22;35723;51.194;5.112;2023-04-03T00:36:15;4.90;99.90
49829;DHT22;35723;51.194;5.112;2023-04-03T00:38:41;5.00;99.90
49829;DHT22;35723;51.194;5.112;2023-04-03T00:41:07;4.90;99.90
49829;DHT22;35723;51.194;5.112;2023-04-03T00:43:32;5.00;99.90
49829;DHT22;35723;51.194;5.112;2023-04-03T00:45:59;5.00;99.90
49829;DHT22;35723;51.194;5.112;2023-04-03T00:48:31;5.00;99.90
49829;DHT22;35723;51.194;5.112;2023-04-03T00:50:58;5.10;99.90
49829;DHT22;35723;51.194;5.112;2023-04-03T00:53:40;5.00;99.90
49829;DHT22;35723;51.194;5.112;2023-04-03T00:56:09;5.00;99.90
49829;DHT22;35723;51.194;5.112;2023-04-03T00:58:49;5.00;99.90
49829;DHT22;35723;51.194;5.112;2023-04-03T01:01:21;5.00;99.90
49829;DHT22;35723;51.194;5.112;2023-04-03T01:07:22;5.00;99.90
49829;DHT22;35723;51.194;5.112;2023-04-03T01:09:52;4.90;99.90
49829;DHT22;35723;51.194;5.112;2023-04-03T01:12:21;4.80;99.90
49829;DHT22;35723;51.194;5.112;2023-04-03T01:14:49;4.80;99.90
49829;DHT22;35723;51.194;5.112;2023-04-03T01:28:08;4.70;99.90
49829;DHT22;35723;51.194;5.112;2023-04-03T01:30:39;4.60;99.90
49829;DHT22;35723;51.194;5.112;2023-04-03T01:33:06;4.60;99.90
49829;DHT22;35723;51.194;5.112;2023-04-03T01:35:32;4.60;99.90
49829;DHT22;35723;51.194;5.112;2023-04-03T01:37:58;4.60;99.90
49829;DHT22;35723;51.194;5.112;2023-04-03T01:40:23;4.70;99.90
49829;DHT22;35723;51.194;5.112;2023-04-03T01:42:49;4.50;99.90
49829;DHT22;35723;51.194;5.112;2023-04-03T01:45:15;4.60;99.90
49829;DHT22;35723;51.194;5.112;2023-04-03T01:47:40;4.50;99.90
49829;DHT22;35723;51.194;5.112;2023-04-03T01:50:06;4.50;99.90
49829;DHT22;35723;51.194;5.112;2023-04-03T01:52:32;4.50;99.90
49829;DHT22;35723;51.194;5.112;2023-04-03T01:54:57;4.40;99.90
49829;DHT22;35723;51.194;5.112;2023-04-03T01:57:23;4.50;99.90
49829;DHT22;35723;51.194;5.112;2023-04-03T01:59:49;4.50;99.90
49829;DHT22;35723;51.194;5.112;2023-04-03T02:02:14;4.40;99.90
49829;DHT22;35723;51.194;5.112;2023-04-03T02:04:41;4.40;99.90
49829;DHT22;35723;51.194;5.112;2023-04-03T02:07:07;4.40;99.90
49829;DHT22;35723;51.194;5.112;2023-04-03T02:09:32;4.40;99.90
49829;DHT22;35723;51.194;5.112;2023-04-03T02:11:58;4.40;99.90
49829;DHT22;35723;51.194;5.112;2023-04-03T02:14:24;4.40;99.90
49829;DHT22;35723;51.194;5.112;2023-04-03T02:16:50;4.30;99.90
49829;DHT22;35723;51.194;5.112;2023-04-03T02:19:16;4.30;99.90
49829;DHT22;35723;51.194;5.112;2023-04-03T02:21:41;4.30;99.90
49829;DHT22;35723;51.194;5.112;2023-04-03T02:24:07;4.20;99.90
49829;DHT22;35723;51.194;5.112;2023-04-03T02:26:33;4.20;99.90
49829;DHT22;35723;51.194;5.112;2023-04-03T02:28:59;4.20;99.90
49829;DHT22;35723;51.194;5.112;2023-04-03T02:31:24;4.20;99.90
49829;DHT22;35723;51.194;5.112;2023-04-03T02:33:50;4.30;99.90
49829;DHT22;35723;51.194;5.112;2023-04-03T02:36:16;4.30;99.90
49829;DHT22;35723;51.194;5.112;2023-04-03T02:38:42;4.30;99.90
49829;DHT22;35723;51.194;5.112;2023-04-03T02:41:10;4.20;99.90
49829;DHT22;35723;51.194;5.112;2023-04-03T02:43:36;4.20;99.90
49829;DHT22;35723;51.194;5.112;2023-04-03T02:46:02;4.20;99.90
49829;DHT22;35723;51.194;5.112;2023-04-03T02:48:28;4.20;99.90
49829;DHT22;35723;51.194;5.112;2023-04-03T02:50:53;4.20;99.90
49829;DHT22;35723;51.194;5.112;2023-04-03T02:53:19;4.30;99.90
49829;DHT22;35723;51.194;5.112;2023-04-03T02:55:45;4.20;99.90
49829;DHT22;35723;51.194;5.112;2023-04-03T02:58:11;4.30;99.90
49829;DHT22;35723;51.194;5.112;2023-04-03T03:00:37;4.20;99.90
49829;DHT22;35723;51.194;5.112;2023-04-03T03:03:03;4.20;99.90
49829;DHT22;35723;51.194;5.112;2023-04-03T03:05:29;4.20;99.90
49829;DHT22;35723;51.194;5.112;2023-04-03T03:07:55;4.20;99.90
49829;DHT22;35723;51.194;5.112;2023-04-03T03:10:21;4.30;99.90
49829;DHT22;35723;51.194;5.112;2023-04-03T03:12:47;4.30;99.90
49829;DHT22;35723;51.194;5.112;2023-04-03T03:15:13;4.30;99.90
49829;DHT22;35723;51.194;5.112;2023-04-03T03:17:40;4.40;99.90
49829;DHT22;35723;51.194;5.112;2023-04-03T03:20:07;4.50;99.90
49829;DHT22;35723;51.194;5.112;2023-04-03T03:22:34;4.50;99.90
49829;DHT22;35723;51.194;5.112;2023-04-03T03:25:00;4.50;99.90
49829;DHT22;35723;51.194;5.112;2023-04-03T03:27:26;4.40;99.90
49829;DHT22;35723;51.194;5.112;2023-04-03T03:29:52;4.30;99.90
49829;DHT22;35723;51.194;5.112;2023-04-03T03:32:18;4.40;99.90
49829;DHT22;35723;51.194;5.112;2023-04-03T03:34:43;4.40;99.90
49829;DHT22;35723;51.194;5.112;2023-04-03T03:37:09;4.40;99.90
49829;DHT22;35723;51.194;5.112;2023-04-03T03:39:34;4.40;99.90
49829;DHT22;35723;51.194;5.112;2023-04-03T03:42:00;4.40;99.90
49829;DHT22;35723;51.194;5.112;2023-04-03T03:44:26;4.40;99.90
49829;DHT22;35723;51.194;5.112;2023-04-03T03:46:54;4.40;99.90
49829;DHT22;35723;51.194;5.112;2023-04-03T03:49:20;4.30;99.90
49829;DHT22;35723;51.194;5.112;2023-04-03T03:51:46;4.40;99.90
49829;DHT22;35723;51.194;5.112;2023-04-03T03:54:12;4.40;99.90
49829;DHT22;35723;51.194;5.112;2023-04-03T03:56:38;4.40;99.90
49829;DHT22;35723;51.194;5.112;2023-04-03T03:59:05;4.30;99.90
49829;DHT22;35723;51.194;5.112;2023-04-03T04:01:31;4.30;99.90
49829;DHT22;35723;51.194;5.112;2023-04-03T04:03:57;4.30;99.90
49829;DHT22;35723;51.194;5.112;2023-04-03T04:06:22;4.20;99.90
49829;DHT22;35723;51.194;5.112;2023-04-03T04:08:48;4.20;99.90
49829;DHT22;35723;51.194;5.112;2023-04-03T04:11:14;4.30;99.90
49829;DHT22;35723;51.194;5.112;2023-04-03T04:13:39;4.20;99.90
49829;DHT22;35723;51.194;5.112;2023-04-03T04:16:06;4.10;99.90
49829;DHT22;35723;51.194;5.112;2023-04-03T04:18:32;4.20;99.90
49829;DHT22;35723;51.194;5.112;2023-04-03T04:20:57;4.30;99.90
49829;DHT22;35723;51.194;5.112;2023-04-03T04:23:23;4.40;99.90
49829;DHT22;35723;51.194;5.112;2023-04-03T04:25:49;4.40;99.90
49829;DHT22;35723;51.194;5.112;2023-04-03T04:28:15;4.40;99.90
49829;DHT22;35723;51.194;5.112;2023-04-03T04:30:41;4.50;99.90
49829;DHT22;35723;51.194;5.112;2023-04-03T04:33:07;4.40;99.90
49829;DHT22;35723;51.194;5.112;2023-04-03T04:35:33;4.40;99.90
49829;DHT22;35723;51.194;5.112;2023-04-03T04:37:59;4.50;99.90
49829;DHT22;35723;51.194;5.112;2023-04-03T04:40:25;4.50;99.90
49829;DHT22;35723;51.194;5.112;2023-04-03T04:42:51;4.50;99.90
49829;DHT22;35723;51.194;5.112;2023-04-03T04:45:17;4.60;99.90
49829;DHT22;35723;51.194;5.112;2023-04-03T04:47:42;4.60;99.90
49829;DHT22;35723;51.194;5.112;2023-04-03T04:50:08;4.70;99.90
49829;DHT22;35723;51.194;5.112;2023-04-03T04:52:35;4.70;99.90
49829;DHT22;35723;51.194;5.112;2023-04-03T04:55:00;4.80;99.90
49829;DHT22;35723;51.194;5.112;2023-04-03T04:57:26;4.80;99.90
49829;DHT22;35723;51.194;5.112;2023-04-03T04:59:52;4.80;99.90
49829;DHT22;35723;51.194;5.112;2023-04-03T05:05:28;4.70;99.90
49829;DHT22;35723;51.194;5.112;2023-04-03T05:07:54;4.60;99.90
49829;DHT22;35723;51.194;5.112;2023-04-03T05:14:17;4.50;99.90
49829;DHT22;35723;51.194;5.112;2023-04-03T05:20:07;4.40;99.90
49829;DHT22;35723;51.194;5.112;2023-04-03T05:25:38;4.30;99.90
49829;DHT22;35723;51.194;5.112;2023-04-03T05:28:04;4.20;99.90
49829;DHT22;35723;51.194;5.112;2023-04-03T05:30:42;4.20;99.90
49829;DHT22;35723;51.194;5.112;2023-04-03T05:39:42;4.20;99.90
49829;DHT22;35723;51.194;5.112;2023-04-03T05:42:08;4.30;99.90
49829;DHT22;35723;51.194;5.112;2023-04-03T05:44:34;4.30;99.90
49829;DHT22;35723;51.194;5.112;2023-04-03T05:47:19;4.40;99.90
49829;DHT22;35723;51.194;5.112;2023-04-03T05:52:49;4.50;99.90
49829;DHT22;35723;51.194;5.112;2023-04-03T05:58:38;4.50;99.90
49829;DHT22;35723;51.194;5.112;2023-04-03T06:08:05;4.70;99.90
49829;DHT22;35723;51.194;5.112;2023-04-03T06:10:32;4.70;99.90
49829;DHT22;35723;51.194;5.112;2023-04-03T06:12:58;4.70;99.90
49829;DHT22;35723;51.194;5.112;2023-04-03T06:15:23;4.70;99.90
49829;DHT22;35723;51.194;5.112;2023-04-03T06:17:50;4.80;99.90
49829;DHT22;35723;51.194;5.112;2023-04-03T06:20:15;4.90;99.90
49829;DHT22;35723;51.194;5.112;2023-04-03T06:22:41;5.00;99.90
49829;DHT22;35723;51.194;5.112;2023-04-03T06:25:08;5.00;99.90
49829;DHT22;35723;51.194;5.112;2023-04-03T06:27:34;5.00;99.90
49829;DHT22;35723;51.194;5.112;2023-04-03T06:30:00;5.00;99.90
49829;DHT22;35723;51.194;5.112;2023-04-03T06:32:26;5.10;99.90
49829;DHT22;35723;51.194;5.112;2023-04-03T06:34:51;5.10;99.90
49829;DHT22;35723;51.194;5.112;2023-04-03T06:37:22;5.20;99.90
49829;DHT22;35723;51.194;5.112;2023-04-03T06:39:49;5.20;99.90
49829;DHT22;35723;51.194;5.112;2023-04-03T06:42:14;5.30;99.90
49829;DHT22;35723;51.194;5.112;2023-04-03T06:44:40;5.30;99.90
49829;DHT22;35723;51.194;5.112;2023-04-03T06:47:06;5.30;99.90
49829;DHT22;35723;51.194;5.112;2023-04-03T06:49:31;5.40;99.90
49829;DHT22;35723;51.194;5.112;2023-04-03T06:51:58;5.40;99.90
49829;DHT22;35723;51.194;5.112;2023-04-03T06:54:23;5.50;99.90
49829;DHT22;35723;51.194;5.112;2023-04-03T06:56:49;5.50;99.90
49829;DHT22;35723;51.194;5.112;2023-04-03T06:59:34;5.60;99.90
49829;DHT22;35723;51.194;5.112;2023-04-03T07:02:00;5.70;99.90
49829;DHT22;35723;51.194;5.112;2023-04-03T07:04:26;5.70;99.90
49829;DHT22;35723;51.194;5.112;2023-04-03T07:06:52;5.70;99.90
49829;DHT22;35723;51.194;5.112;2023-04-03T07:09:18;5.80;99.90
49829;DHT22;35723;51.194;5.112;2023-04-03T07:11:44;5.90;99.90
49829;DHT22;35723;51.194;5.112;2023-04-03T07:14:10;6.00;99.90
49829;DHT22;35723;51.194;5.112;2023-04-03T07:16:35;6.10;99.90
49829;DHT22;35723;51.194;5.112;2023-04-03T07:19:02;6.10;99.90
49829;DHT22;35723;51.194;5.112;2023-04-03T07:21:28;6.20;99.90
49829;DHT22;35723;51.194;5.112;2023-04-03T07:23:54;6.30;99.90
49829;DHT22;35723;51.194;5.112;2023-04-03T07:26:21;6.40;99.90
49829;DHT22;35723;51.194;5.112;2023-04-03T07:28:47;6.40;99.90
49829;DHT22;35723;51.194;5.112;2023-04-03T07:31:14;6.40;99.90
49829;DHT22;35723;51.194;5.112;2023-04-03T07:33:41;6.40;99.90
49829;DHT22;35723;51.194;5.112;2023-04-03T07:36:08;6.50;99.90
49829;DHT22;35723;51.194;5.112;2023-04-03T07:38:35;6.60;99.90
49829;DHT22;35723;51.194;5.112;2023-04-03T07:41:01;6.60;99.90
49829;DHT22;35723;51.194;5.112;2023-04-03T07:43:27;6.70;99.90
49829;DHT22;35723;51.194;5.112;2023-04-03T07:45:53;6.70;99.90
49829;DHT22;35723;51.194;5.112;2023-04-03T07:48:24;6.80;99.90
49829;DHT22;35723;51.194;5.112;2023-04-03T07:50:50;6.90;99.90
49829;DHT22;35723;51.194;5.112;2023-04-03T07:53:17;6.90;99.90
49829;DHT22;35723;51.194;5.112;2023-04-03T07:55:43;7.00;99.90
49829;DHT22;35723;51.194;5.112;2023-04-03T07:58:13;7.00;99.90
49829;DHT22;35723;51.194;5.112;2023-04-03T08:00:40;7.10;99.90
49829;DHT22;35723;51.194;5.112;2023-04-03T08:03:06;7.20;99.90
49829;DHT22;35723;51.194;5.112;2023-04-03T08:05:40;7.20;99.90
49829;DHT22;35723;51.194;5.112;2023-04-03T08:08:06;7.40;99.90
49829;DHT22;35723;51.194;5.112;2023-04-03T08:10:32;7.40;99.90
49829;DHT22;35723;51.194;5.112;2023-04-03T08:12:59;7.50;99.90
49829;DHT22;35723;51.194;5.112;2023-04-03T08:15:25;7.60;99.90
49829;DHT22;35723;51.194;5.112;2023-04-03T08:17:50;7.60;99.90
49829;DHT22;35723;51.194;5.112;2023-04-03T08:20:17;7.70;99.90
49829;DHT22;35723;51.194;5.112;2023-04-03T08:22:42;7.80;99.90
49829;DHT22;35723;51.194;5.112;2023-04-03T08:25:08;7.80;99.90
49829;DHT22;35723;51.194;5.112;2023-04-03T08:27:35;7.90;99.90
49829;DHT22;35723;51.194;5.112;2023-04-03T08:30:01;8.00;99.90
49829;DHT22;35723;51.194;5.112;2023-04-03T08:32:27;8.10;99.90
49829;DHT22;35723;51.194;5.112;2023-04-03T08:34:52;8.10;99.90
49829;DHT22;35723;51.194;5.112;2023-04-03T08:37:18;8.30;99.90
49829;DHT22;35723;51.194;5.112;2023-04-03T08:39:45;8.30;99.90
49829;DHT22;35723;51.194;5.112;2023-04-03T08:45:15;8.40;99.90
49829;DHT22;35723;51.194;5.112;2023-04-03T08:48:02;8.50;99.90
49829;DHT22;35723;51.194;5.112;2023-04-03T08:50:37;8.50;99.90
49829;DHT22;35723;51.194;5.112;2023-04-03T08:53:06;8.50;99.90
49829;DHT22;35723;51.194;5.112;2023-04-03T08:55:47;8.60;99.90
49829;DHT22;35723;51.194;5.112;2023-04-03T08:58:26;8.70;99.90
49829;DHT22;35723;51.194;5.112;2023-04-03T09:00:58;8.80;99.90
49829;DHT22;35723;51.194;5.112;2023-04-03T09:03:24;8.80;99.90
49829;DHT22;35723;51.194;5.112;2023-04-03T09:06:00;8.90;99.90
49829;DHT22;35723;51.194;5.112;2023-04-03T09:08:31;8.90;99.90
49829;DHT22;35723;51.194;5.112;2023-04-03T09:14:07;9.10;99.90
49829;DHT22;35723;51.194;5.112;2023-04-03T09:16:56;9.20;99.90
49829;DHT22;35723;51.194;5.112;2023-04-03T09:22:25;9.40;99.90
49829;DHT22;35723;51.194;5.112;2023-04-03T09:27:36;9.40;99.90
49829;DHT22;35723;51.194;5.112;2023-04-03T09:30:02;9.50;99.90
49829;DHT22;35723;51.194;5.112;2023-04-03T09:32:34;9.50;99.90
49829;DHT22;35723;51.194;5.112;2023-04-03T09:37:46;9.70;99.90
49829;DHT22;35723;51.194;5.112;2023-04-03T09:40:39;9.80;99.90
49829;DHT22;35723;51.194;5.112;2023-04-03T09:45:44;9.80;99.90
49829;DHT22;35723;51.194;5.112;2023-04-03T09:51:02;9.80;99.90
49829;DHT22;35723;51.194;5.112;2023-04-03T09:53:34;9.90;99.90
49829;DHT22;35723;51.194;5.112;2023-04-03T09:58:46;10.20;99.90
49829;DHT22;35723;51.194;5.112;2023-04-03T10:01:31;10.20;99.90
49829;DHT22;35723;51.194;5.112;2023-04-03T10:06:44;10.30;99.90
49829;DHT22;35723;51.194;5.112;2023-04-03T10:09:30;10.30;99.90
49829;DHT22;35723;51.194;5.112;2023-04-03T10:12:06;10.30;99.90
49829;DHT22;35723;51.194;5.112;2023-04-03T10:20:15;10.50;99.90
49829;DHT22;35723;51.194;5.112;2023-04-03T10:28:48;10.60;99.60
49829;DHT22;35723;51.194;5.112;2023-04-03T10:31:29;10.70;99.90
49829;DHT22;35723;51.194;5.112;2023-04-03T10:40:02;10.90;99.90
49829;DHT22;35723;51.194;5.112;2023-04-03T10:42:46;11.10;99.40
49829;DHT22;35723;51.194;5.112;2023-04-03T10:51:00;10.00;96.70
49829;DHT22;35723;51.194;5.112;2023-04-03T10:53:39;10.10;98.70
49829;DHT22;35723;51.194;5.112;2023-04-03T10:58:56;10.60;99.90
49829;DHT22;35723;51.194;5.112;2023-04-03T11:01:29;10.90;99.60
49829;DHT22;35723;51.194;5.112;2023-04-03T11:03:59;11.10;99.00
49829;DHT22;35723;51.194;5.112;2023-04-03T11:06:31;11.30;99.10
49829;DHT22;35723;51.194;5.112;2023-04-03T11:09:02;11.40;97.50
49829;DHT22;35723;51.194;5.112;2023-04-03T11:11:34;11.50;97.50
49829;DHT22;35723;51.194;5.112;2023-04-03T11:14:32;11.60;97.90
49829;DHT22;35723;51.194;5.112;2023-04-03T11:17:11;11.80;96.30
49829;DHT22;35723;51.194;5.112;2023-04-03T11:19:49;11.90;96.90
49829;DHT22;35723;51.194;5.112;2023-04-03T11:22:33;12.00;96.80
49829;DHT22;35723;51.194;5.112;2023-04-03T11:27:55;12.10;95.90
49829;DHT22;35723;51.194;5.112;2023-04-03T11:36:07;12.30;95.80
49829;DHT22;35723;51.194;5.112;2023-04-03T11:38:37;12.30;95.40
49829;DHT22;35723;51.194;5.112;2023-04-03T11:41:07;12.40;95.00
49829;DHT22;35723;51.194;5.112;2023-04-03T11:43:34;12.40;94.50
49829;DHT22;35723;51.194;5.112;2023-04-03T11:46:06;12.50;94.50
49829;DHT22;35723;51.194;5.112;2023-04-03T11:53:34;12.60;91.70
49829;DHT22;35723;51.194;5.112;2023-04-03T12:01:47;12.70;91.80
49829;DHT22;35723;51.194;5.112;2023-04-03T12:04:15;12.60;91.60
49829;DHT22;35723;51.194;5.112;2023-04-03T12:06:50;12.60;92.80
49829;DHT22;35723;51.194;5.112;2023-04-03T12:09:24;12.60;92.50
49829;DHT22;35723;51.194;5.112;2023-04-03T12:11:51;12.70;92.00
49829;DHT22;35723;51.194;5.112;2023-04-03T12:14:17;12.70;91.90
49829;DHT22;35723;51.194;5.112;2023-04-03T12:16:46;12.70;93.10
49829;DHT22;35723;51.194;5.112;2023-04-03T12:19:37;12.80;93.50
49829;DHT22;35723;51.194;5.112;2023-04-03T12:22:09;12.70;93.00
49829;DHT22;35723;51.194;5.112;2023-04-03T12:24:44;12.70;92.80
49829;DHT22;35723;51.194;5.112;2023-04-03T12:32:54;12.90;92.00
49829;DHT22;35723;51.194;5.112;2023-04-03T12:35:36;12.80;92.80
49829;DHT22;35723;51.194;5.112;2023-04-03T12:46:38;13.00;90.00
49829;DHT22;35723;51.194;5.112;2023-04-03T12:49:37;13.00;86.80
49829;DHT22;35723;51.194;5.112;2023-04-03T12:52:04;13.00;87.90
49829;DHT22;35723;51.194;5.112;2023-04-03T12:54:38;13.00;89.30
49829;DHT22;35723;51.194;5.112;2023-04-03T12:57:11;13.00;89.70
49829;DHT22;35723;51.194;5.112;2023-04-03T12:59:37;13.00;88.50
49829;DHT22;35723;51.194;5.112;2023-04-03T13:02:15;13.10;89.50
49829;DHT22;35723;51.194;5.112;2023-04-03T13:04:43;13.10;86.50
49829;DHT22;35723;51.194;5.112;2023-04-03T13:07:24;13.00;85.10
49829;DHT22;35723;51.194;5.112;2023-04-03T13:09:58;13.10;84.40
49829;DHT22;35723;51.194;5.112;2023-04-03T13:12:25;13.10;84.60
49829;DHT22;35723;51.194;5.112;2023-04-03T13:14:57;13.00;84.70
49829;DHT22;35723;51.194;5.112;2023-04-03T13:17:23;13.20;84.90
49829;DHT22;35723;51.194;5.112;2023-04-03T13:19:49;13.10;85.20
49829;DHT22;35723;51.194;5.112;2023-04-03T13:22:30;13.20;86.80
49829;DHT22;35723;51.194;5.112;2023-04-03T13:25:00;13.20;86.90
49829;DHT22;35723;51.194;5.112;2023-04-03T13:27:28;13.30;85.30
49829;DHT22;35723;51.194;5.112;2023-04-03T13:29:58;13.40;85.20
49829;DHT22;35723;51.194;5.112;2023-04-03T13:32:28;13.40;85.00
49829;DHT22;35723;51.194;5.112;2023-04-03T13:34:55;13.20;84.30
49829;DHT22;35723;51.194;5.112;2023-04-03T13:37:29;13.30;83.50
49829;DHT22;35723;51.194;5.112;2023-04-03T13:40:22;13.30;85.30
49829;DHT22;35723;51.194;5.112;2023-04-03T13:43:02;13.50;84.80
49829;DHT22;35723;51.194;5.112;2023-04-03T13:45:30;13.50;82.20
49829;DHT22;35723;51.194;5.112;2023-04-03T13:48:17;13.50;82.50
49829;DHT22;35723;51.194;5.112;2023-04-03T13:51:16;13.40;81.20
49829;DHT22;35723;51.194;5.112;2023-04-03T13:53:54;13.40;80.60
49829;DHT22;35723;51.194;5.112;2023-04-03T13:56:32;13.20;82.10
49829;DHT22;35723;51.194;5.112;2023-04-03T14:01:52;13.40;79.90
49829;DHT22;35723;51.194;5.112;2023-04-03T14:04:25;13.40;79.50
49829;DHT22;35723;51.194;5.112;2023-04-03T14:06:51;13.40;80.40
49829;DHT22;35723;51.194;5.112;2023-04-03T14:09:19;13.40;80.30
49829;DHT22;35723;51.194;5.112;2023-04-03T14:11:48;13.40;79.70
49829;DHT22;35723;51.194;5.112;2023-04-03T14:14:20;13.30;80.00
49829;DHT22;35723;51.194;5.112;2023-04-03T14:16:55;13.30;78.80
49829;DHT22;35723;51.194;5.112;2023-04-03T14:19:35;13.40;79.80
49829;DHT22;35723;51.194;5.112;2023-04-03T14:22:11;13.40;80.40
49829;DHT22;35723;51.194;5.112;2023-04-03T14:24:38;13.30;79.30
49829;DHT22;35723;51.194;5.112;2023-04-03T14:27:25;13.30;79.70
49829;DHT22;35723;51.194;5.112;2023-04-03T14:29:53;13.40;78.50
49829;DHT22;35723;51.194;5.112;2023-04-03T14:32:23;13.40;78.10
49829;DHT22;35723;51.194;5.112;2023-04-03T14:34:50;13.50;78.80
49829;DHT22;35723;51.194;5.112;2023-04-03T14:37:19;13.50;79.40
49829;DHT22;35723;51.194;5.112;2023-04-03T14:39:46;13.50;80.10
49829;DHT22;35723;51.194;5.112;2023-04-03T14:42:13;13.50;81.00
49829;DHT22;35723;51.194;5.112;2023-04-03T14:44:39;13.50;81.00
49829;DHT22;35723;51.194;5.112;2023-04-03T14:47:12;13.60;80.10
49829;DHT22;35723;51.194;5.112;2023-04-03T14:49:39;13.50;80.10
49829;DHT22;35723;51.194;5.112;2023-04-03T14:52:05;13.40;81.20
49829;DHT22;35723;51.194;5.112;2023-04-03T14:54:31;13.40;82.10
49829;DHT22;35723;51.194;5.112;2023-04-03T14:56:58;13.40;83.50
49829;DHT22;35723;51.194;5.112;2023-04-03T14:59:25;13.40;83.50
49829;DHT22;35723;51.194;5.112;2023-04-03T15:01:51;13.40;83.40
49829;DHT22;35723;51.194;5.112;2023-04-03T15:04:20;13.30;83.80
49829;DHT22;35723;51.194;5.112;2023-04-03T15:06:47;13.40;82.00
49829;DHT22;35723;51.194;5.112;2023-04-03T15:09:20;13.40;81.90
49829;DHT22;35723;51.194;5.112;2023-04-03T15:11:46;13.40;82.30
49829;DHT22;35723;51.194;5.112;2023-04-03T15:14:12;13.30;81.90
49829;DHT22;35723;51.194;5.112;2023-04-03T15:16:38;13.20;82.80
49829;DHT22;35723;51.194;5.112;2023-04-03T15:19:03;13.20;82.70
49829;DHT22;35723;51.194;5.112;2023-04-03T15:21:29;13.10;83.10
49829;DHT22;35723;51.194;5.112;2023-04-03T15:23:55;13.10;84.20
49829;DHT22;35723;51.194;5.112;2023-04-03T15:26:21;13.00;84.60
49829;DHT22;35723;51.194;5.112;2023-04-03T15:28:46;12.80;85.00
49829;DHT22;35723;51.194;5.112;2023-04-03T15:31:12;12.80;85.40
49829;DHT22;35723;51.194;5.112;2023-04-03T15:33:38;12.80;85.60
49829;DHT22;35723;51.194;5.112;2023-04-03T15:36:05;12.70;85.20
49829;DHT22;35723;51.194;5.112;2023-04-03T15:38:31;12.80;86.80
49829;DHT22;35723;51.194;5.112;2023-04-03T15:40:56;12.80;86.30
49829;DHT22;35723;51.194;5.112;2023-04-03T15:43:23;12.70;85.70
49829;DHT22;35723;51.194;5.112;2023-04-03T15:45:49;12.70;86.20
49829;DHT22;35723;51.194;5.112;2023-04-03T15:48:16;12.60;85.20
49829;DHT22;35723;51.194;5.112;2023-04-03T15:50:42;12.60;86.10
49829;DHT22;35723;51.194;5.112;2023-04-03T15:53:09;12.60;85.90
49829;DHT22;35723;51.194;5.112;2023-04-03T15:55:36;12.80;86.00
49829;DHT22;35723;51.194;5.112;2023-04-03T15:58:03;12.70;86.60
49829;DHT22;35723;51.194;5.112;2023-04-03T16:00:29;12.60;87.30
49829;DHT22;35723;51.194;5.112;2023-04-03T16:02:58;12.60;87.00
49829;DHT22;35723;51.194;5.112;2023-04-03T16:05:24;12.60;87.20
49829;DHT22;35723;51.194;5.112;2023-04-03T16:07:51;12.50;87.00
49829;DHT22;35723;51.194;5.112;2023-04-03T16:10:18;12.40;86.90
49829;DHT22;35723;51.194;5.112;2023-04-03T16:12:44;12.40;86.40
49829;DHT22;35723;51.194;5.112;2023-04-03T16:15:11;12.40;86.40
49829;DHT22;35723;51.194;5.112;2023-04-03T16:17:37;12.40;86.90
49829;DHT22;35723;51.194;5.112;2023-04-03T16:20:05;12.40;87.30
49829;DHT22;35723;51.194;5.112;2023-04-03T16:22:31;12.40;88.00
49829;DHT22;35723;51.194;5.112;2023-04-03T16:24:58;12.40;88.20
49829;DHT22;35723;51.194;5.112;2023-04-03T16:27:23;12.30;88.10
49829;DHT22;35723;51.194;5.112;2023-04-03T16:29:54;12.20;88.10
49829;DHT22;35723;51.194;5.112;2023-04-03T16:32:20;12.20;88.00
49829;DHT22;35723;51.194;5.112;2023-04-03T16:34:46;12.20;87.70
49829;DHT22;35723;51.194;5.112;2023-04-03T16:37:11;12.10;87.40
49829;DHT22;35723;51.194;5.112;2023-04-03T16:39:37;12.00;84.40
49829;DHT22;35723;51.194;5.112;2023-04-03T16:42:03;11.70;86.10
49829;DHT22;35723;51.194;5.112;2023-04-03T16:44:28;11.60;87.00
49829;DHT22;35723;51.194;5.112;2023-04-03T16:46:54;11.60;88.00
49829;DHT22;35723;51.194;5.112;2023-04-03T16:49:20;11.50;88.40
49829;DHT22;35723;51.194;5.112;2023-04-03T16:51:45;11.40;88.60
49829;DHT22;35723;51.194;5.112;2023-04-03T16:54:13;11.40;88.20
49829;DHT22;35723;51.194;5.112;2023-04-03T16:56:39;11.40;88.80
49829;DHT22;35723;51.194;5.112;2023-04-03T16:59:05;11.50;89.20
49829;DHT22;35723;51.194;5.112;2023-04-03T17:01:31;11.60;89.90
49829;DHT22;35723;51.194;5.112;2023-04-03T17:03:57;11.70;90.00
49829;DHT22;35723;51.194;5.112;2023-04-03T17:06:23;11.60;89.80
49829;DHT22;35723;51.194;5.112;2023-04-03T17:08:50;11.60;88.90
49829;DHT22;35723;51.194;5.112;2023-04-03T17:11:16;11.60;88.90
49829;DHT22;35723;51.194;5.112;2023-04-03T17:13:42;11.50;88.60
49829;DHT22;35723;51.194;5.112;2023-04-03T17:16:11;11.60;87.60
49829;DHT22;35723;51.194;5.112;2023-04-03T17:18:39;11.50;88.20
49829;DHT22;35723;51.194;5.112;2023-04-03T17:21:05;11.50;89.00
49829;DHT22;35723;51.194;5.112;2023-04-03T17:23:31;11.50;90.00
49829;DHT22;35723;51.194;5.112;2023-04-03T17:26:00;11.50;90.00
49829;DHT22;35723;51.194;5.112;2023-04-03T17:28:26;11.40;90.00
49829;DHT22;35723;51.194;5.112;2023-04-03T17:30:59;11.20;89.60
49829;DHT22;35723;51.194;5.112;2023-04-03T17:33:26;11.20;89.40
49829;DHT22;35723;51.194;5.112;2023-04-03T17:35:55;11.20;89.40
49829;DHT22;35723;51.194;5.112;2023-04-03T17:38:21;11.20;89.60
49829;DHT22;35723;51.194;5.112;2023-04-03T17:40:46;11.20;90.10
49829;DHT22;35723;51.194;5.112;2023-04-03T17:43:12;11.20;90.20
49829;DHT22;35723;51.194;5.112;2023-04-03T17:45:38;11.20;90.20
49829;DHT22;35723;51.194;5.112;2023-04-03T17:48:04;10.90;90.20
49829;DHT22;35723;51.194;5.112;2023-04-03T17:50:29;11.00;90.30
49829;DHT22;35723;51.194;5.112;2023-04-03T17:52:55;10.90;90.30
49829;DHT22;35723;51.194;5.112;2023-04-03T17:55:21;10.80;90.40
49829;DHT22;35723;51.194;5.112;2023-04-03T17:57:47;10.80;90.50
49829;DHT22;35723;51.194;5.112;2023-04-03T18:00:13;10.80;90.90
49829;DHT22;35723;51.194;5.112;2023-04-03T18:02:40;10.80;90.90
49829;DHT22;35723;51.194;5.112;2023-04-03T18:05:07;10.70;91.10